sensor_id;sensor_type;location;lat;lon;timestamp;temperature;humidity
19970;DHT22;10146;47.754;9.566;2024-01-07T00:01:45;3.30;99.90
19970;DHT22;10146;47.754;9.566;2024-01-07T00:04:11;3.30;99.90
19970;DHT22;10146;47.754;9.566;2024-01-07T00:06:36;3.30;99.90
19970;DHT22;10146;47.754;9.566;2024-01-07T00:09:02;3.30;99.90
19970;DHT22;10146;47.754;9.566;2024-01-07T00:11:27;3.30;99.90
19970;DHT22;10146;47.754;9.566;2024-01-07T00:13:53;3.30;99.90
19970;DHT22;10146;47.754;9.566;2024-01-07T00:16:18;3.30;99.90
19970;DHT22;10146;47.754;9.566;2024-01-07T00:18:44;3.30;99.90
19970;DHT22;10146;47.754;9.566;2024-01-07T00:21:10;3.30;99.90
19970;DHT22;10146;47.754;9.566;2024-01-07T00:23:35;3.30;99.90
19970;DHT22;10146;47.754;9.566;2024-01-07T00:26:01;3.30;99.90
19970;DHT22;10146;47.754;9.566;2024-01-07T00:28:29;3.40;99.90
19970;DHT22;10146;47.754;9.566;2024-01-07T00:30:54;3.30;99.90
19970;DHT22;10146;47.754;9.566;2024-01-07T00:33:20;3.30;99.90
19970;DHT22;10146;47.754;9.566;2024-01-07T00:35:45;3.30;99.90
19970;DHT22;10146;47.754;9.566;2024-01-07T00:38:11;3.30;99.90
19970;DHT22;10146;47.754;9.566;2024-01-07T00:40:37;3.20;99.90
19970;DHT22;10146;47.754;9.566;2024-01-07T00:43:03;3.20;99.90
19970;DHT22;10146;47.754;9.566;2024-01-07T00:45:29;3.20;99.90
19970;DHT22;10146;47.754;9.566;2024-01-07T00:47:54;3.30;99.90
19970;DHT22;10146;47.754;9.566;2024-01-07T00:50:20;3.30;99.90
19970;DHT22;10146;47.754;9.566;2024-01-07T00:52:46;3.30;99.90
19970;DHT22;10146;47.754;9.566;2024-01-07T00:55:12;3.30;99.90
19970;DHT22;10146;47.754;9.566;2024-01-07T00:57:37;3.30;99.90
19970;DHT22;10146;47.754;9.566;2024-01-07T01:00:07;3.30;99.90
19970;DHT22;10146;47.754;9.566;2024-01-07T01:02:33;3.30;99.90
19970;DHT22;10146;47.754;9.566;2024-01-07T01:04:59;3.30;99.90
19970;DHT22;10146;47.754;9.566;2024-01-07T01:07:24;3.30;99.90
19970;DHT22;10146;47.754;9.566;2024-01-07T01:09:50;3.30;99.90
19970;DHT22;10146;47.754;9.566;2024-01-07T01:12:16;3.30;99.90
19970;DHT22;10146;47.754;9.566;2024-01-07T01:14:41;3.20;99.90
19970;DHT22;10146;47.754;9.566;2024-01-07T01:17:07;3.20;99.90
19970;DHT22;10146;47.754;9.566;2024-01-07T01:19:32;3.20;99.90
19970;DHT22;10146;47.754;9.566;2024-01-07T01:21:59;3.20;99.90
19970;DHT22;10146;47.754;9.566;2024-01-07T01:24:25;3.20;99.90
19970;DHT22;10146;47.754;9.566;2024-01-07T01:26:50;3.20;99.90
19970;DHT22;10146;47.754;9.566;2024-01-07T01:29:16;3.20;99.90
19970;DHT22;10146;47.754;9.566;2024-01-07T01:31:41;3.20;99.90
19970;DHT22;10146;47.754;9.566;2024-01-07T01:34:07;3.20;99.90
19970;DHT22;10146;47.754;9.566;2024-01-07T01:36:32;3.20;99.90
19970;DHT22;10146;47.754;9.566;2024-01-07T01:38:58;3.20;99.90
19970;DHT22;10146;47.754;9.566;2024-01-07T01:41:24;3.20;99.90
19970;DHT22;10146;47.754;9.566;2024-01-07T01:43:49;3.20;99.90
19970;DHT22;10146;47.754;9.566;2024-01-07T01:46:15;3.20;99.90
19970;DHT22;10146;47.754;9.566;2024-01-07T01:48:41;3.10;99.90
19970;DHT22;10146;47.754;9.566;2024-01-07T01:51:08;3.10;99.90
19970;DHT22;10146;47.754;9.566;2024-01-07T01:53:34;3.10;99.90
19970;DHT22;10146;47.754;9.566;2024-01-07T01:56:01;3.10;99.90
19970;DHT22;10146;47.754;9.566;2024-01-07T01:58:30;3.10;99.90
19970;DHT22;10146;47.754;9.566;2024-01-07T02:00:56;3.10;99.90
19970;DHT22;10146;47.754;9.566;2024-01-07T02:03:22;3.10;99.90
19970;DHT22;10146;47.754;9.566;2024-01-07T02:05:48;3.10;99.90
19970;DHT22;10146;47.754;9.566;2024-01-07T02:08:15;3.10;99.90
19970;DHT22;10146;47.754;9.566;2024-01-07T02:10:41;3.00;99.90
19970;DHT22;10146;47.754;9.566;2024-01-07T02:13:07;3.10;99.90
19970;DHT22;10146;47.754;9.566;2024-01-07T02:15:32;3.10;99.90
19970;DHT22;10146;47.754;9.566;2024-01-07T02:17:59;3.10;99.90
19970;DHT22;10146;47.754;9.566;2024-01-07T02:20:25;3.10;99.90
19970;DHT22;10146;47.754;9.566;2024-01-07T02:22:51;3.10;99.90
19970;DHT22;10146;47.754;9.566;2024-01-07T02:25:17;3.10;99.90
19970;DHT22;10146;47.754;9.566;2024-01-07T02:27:42;3.10;99.90
19970;DHT22;10146;47.754;9.566;2024-01-07T02:30:08;3.00;99.90
19970;DHT22;10146;47.754;9.566;2024-01-07T02:32:34;3.10;99.90
19970;DHT22;10146;47.754;9.566;2024-01-07T02:35:01;3.10;99.90
19970;DHT22;10146;47.754;9.566;2024-01-07T02:37:27;3.10;99.90
19970;DHT22;10146;47.754;9.566;2024-01-07T02:39:52;3.10;99.90
19970;DHT22;10146;47.754;9.566;2024-01-07T02:42:18;3.10;99.90
19970;DHT22;10146;47.754;9.566;2024-01-07T02:44:44;3.10;99.90
19970;DHT22;10146;47.754;9.566;2024-01-07T02:47:09;3.10;99.90
19970;DHT22;10146;47.754;9.566;2024-01-07T02:49:35;3.10;99.90
19970;DHT22;10146;47.754;9.566;2024-01-07T02:52:00;3.10;99.90
19970;DHT22;10146;47.754;9.566;2024-01-07T02:54:26;3.10;99.90
19970;DHT22;10146;47.754;9.566;2024-01-07T02:56:51;3.10;99.90
19970;DHT22;10146;47.754;9.566;2024-01-07T02:59:17;3.10;99.90
19970;DHT22;10146;47.754;9.566;2024-01-07T03:01:43;3.10;99.90
19970;DHT22;10146;47.754;9.566;2024-01-07T03:04:10;3.10;99.90
19970;DHT22;10146;47.754;9.566;2024-01-07T03:06:36;3.00;99.90
19970;DHT22;10146;47.754;9.566;2024-01-07T03:09:01;3.00;99.90
19970;DHT22;10146;47.754;9.566;2024-01-07T03:11:28;3.10;99.90
19970;DHT22;10146;47.754;9.566;2024-01-07T03:13:54;3.10;99.90
19970;DHT22;10146;47.754;9.566;2024-01-07T03:16:23;3.10;99.90
19970;DHT22;10146;47.754;9.566;2024-01-07T03:18:49;3.10;99.90
19970;DHT22;10146;47.754;9.566;2024-01-07T03:21:22;3.10;99.90
19970;DHT22;10146;47.754;9.566;2024-01-07T03:23:49;3.10;99.90
19970;DHT22;10146;47.754;9.566;2024-01-07T03:26:17;3.10;99.90
19970;DHT22;10146;47.754;9.566;2024-01-07T03:28:43;3.10;99.90
19970;DHT22;10146;47.754;9.566;2024-01-07T03:31:10;3.00;99.90
19970;DHT22;10146;47.754;9.566;2024-01-07T03:33:40;3.10;99.90
19970;DHT22;10146;47.754;9.566;2024-01-07T03:36:10;3.10;99.90
19970;DHT22;10146;47.754;9.566;2024-01-07T03:38:36;3.10;99.90
19970;DHT22;10146;47.754;9.566;2024-01-07T03:41:02;3.10;99.90
19970;DHT22;10146;47.754;9.566;2024-01-07T03:43:28;3.10;99.90
19970;DHT22;10146;47.754;9.566;2024-01-07T03:45:54;3.10;99.90
19970;DHT22;10146;47.754;9.566;2024-01-07T03:48:20;3.10;99.90
19970;DHT22;10146;47.754;9.566;2024-01-07T03:50:45;3.10;99.90
19970;DHT22;10146;47.754;9.566;2024-01-07T03:53:12;3.00;99.90
19970;DHT22;10146;47.754;9.566;2024-01-07T03:55:37;3.10;99.90
19970;DHT22;10146;47.754;9.566;2024-01-07T03:58:04;3.00;99.90
19970;DHT22;10146;47.754;9.566;2024-01-07T04:00:30;3.00;99.90
19970;DHT22;10146;47.754;9.566;2024-01-07T04:02:55;3.00;99.90
19970;DHT22;10146;47.754;9.566;2024-01-07T04:05:21;3.00;99.90
19970;DHT22;10146;47.754;9.566;2024-01-07T04:07:46;3.00;99.90
19970;DHT22;10146;47.754;9.566;2024-01-07T04:10:12;3.00;99.90
19970;DHT22;10146;47.754;9.566;2024-01-07T04:12:38;3.00;99.90
19970;DHT22;10146;47.754;9.566;2024-01-07T04:15:04;3.00;99.90
19970;DHT22;10146;47.754;9.566;2024-01-07T04:17:30;3.10;99.90
19970;DHT22;10146;47.754;9.566;2024-01-07T04:19:56;3.10;99.90
19970;DHT22;10146;47.754;9.566;2024-01-07T04:22:21;3.00;99.90
19970;DHT22;10146;47.754;9.566;2024-01-07T04:24:47;3.10;99.90
19970;DHT22;10146;47.754;9.566;2024-01-07T04:27:13;3.10;99.90
19970;DHT22;10146;47.754;9.566;2024-01-07T04:29:38;3.10;99.90
19970;DHT22;10146;47.754;9.566;2024-01-07T04:32:04;3.10;99.90
19970;DHT22;10146;47.754;9.566;2024-01-07T04:34:29;3.00;99.90
19970;DHT22;10146;47.754;9.566;2024-01-07T04:36:55;3.00;99.90
19970;DHT22;10146;47.754;9.566;2024-01-07T04:39:21;3.00;99.90
19970;DHT22;10146;47.754;9.566;2024-01-07T04:41:46;3.10;99.90
19970;DHT22;10146;47.754;9.566;2024-01-07T04:44:12;3.00;99.90
19970;DHT22;10146;47.754;9.566;2024-01-07T04:46:38;3.10;99.90
19970;DHT22;10146;47.754;9.566;2024-01-07T04:49:05;3.10;99.90
19970;DHT22;10146;47.754;9.566;2024-01-07T04:51:33;3.00;99.90
19970;DHT22;10146;47.754;9.566;2024-01-07T04:53:59;3.00;99.90
19970;DHT22;10146;47.754;9.566;2024-01-07T04:56:25;3.10;99.90
19970;DHT22;10146;47.754;9.566;2024-01-07T04:58:50;3.10;99.90
19970;DHT22;10146;47.754;9.566;2024-01-07T05:01:16;3.10;99.90
19970;DHT22;10146;47.754;9.566;2024-01-07T05:03:41;3.10;99.90
19970;DHT22;10146;47.754;9.566;2024-01-07T05:06:10;3.20;99.90
19970;DHT22;10146;47.754;9.566;2024-01-07T05:08:37;3.10;99.90
19970;DHT22;10146;47.754;9.566;2024-01-07T05:11:03;3.10;99.90
19970;DHT22;10146;47.754;9.566;2024-01-07T05:13:30;3.20;99.90
19970;DHT22;10146;47.754;9.566;2024-01-07T05:15:55;3.20;99.90
19970;DHT22;10146;47.754;9.566;2024-01-07T05:18:22;3.20;99.90
19970;DHT22;10146;47.754;9.566;2024-01-07T05:20:49;3.10;99.90
19970;DHT22;10146;47.754;9.566;2024-01-07T05:23:14;3.20;99.90
19970;DHT22;10146;47.754;9.566;2024-01-07T05:25:43;3.10;99.90
19970;DHT22;10146;47.754;9.566;2024-01-07T05:28:09;3.10;99.90
19970;DHT22;10146;47.754;9.566;2024-01-07T05:30:34;3.10;99.90
19970;DHT22;10146;47.754;9.566;2024-01-07T05:33:00;3.10;99.90
19970;DHT22;10146;47.754;9.566;2024-01-07T05:35:25;3.10;99.90
19970;DHT22;10146;47.754;9.566;2024-01-07T05:37:51;3.10;99.90
19970;DHT22;10146;47.754;9.566;2024-01-07T05:40:17;3.20;99.90
19970;DHT22;10146;47.754;9.566;2024-01-07T05:42:42;3.10;99.90
19970;DHT22;10146;47.754;9.566;2024-01-07T05:45:08;3.10;99.90
19970;DHT22;10146;47.754;9.566;2024-01-07T05:47:34;3.10;99.90
19970;DHT22;10146;47.754;9.566;2024-01-07T05:49:59;3.10;99.90
19970;DHT22;10146;47.754;9.566;2024-01-07T05:52:25;3.10;99.90
19970;DHT22;10146;47.754;9.566;2024-01-07T05:54:51;3.00;99.90
19970;DHT22;10146;47.754;9.566;2024-01-07T05:57:16;3.10;99.90
19970;DHT22;10146;47.754;9.566;2024-01-07T05:59:43;3.10;99.90
19970;DHT22;10146;47.754;9.566;2024-01-07T06:02:09;3.00;99.90
19970;DHT22;10146;47.754;9.566;2024-01-07T06:04:37;3.10;99.90
19970;DHT22;10146;47.754;9.566;2024-01-07T06:07:03;3.10;99.90
19970;DHT22;10146;47.754;9.566;2024-01-07T06:09:28;3.10;99.90
19970;DHT22;10146;47.754;9.566;2024-01-07T06:11:54;3.10;99.90
19970;DHT22;10146;47.754;9.566;2024-01-07T06:14:21;3.10;99.90
19970;DHT22;10146;47.754;9.566;2024-01-07T06:16:47;3.10;99.90
19970;DHT22;10146;47.754;9.566;2024-01-07T06:19:12;3.10;99.90
19970;DHT22;10146;47.754;9.566;2024-01-07T06:21:40;3.10;99.90
19970;DHT22;10146;47.754;9.566;2024-01-07T06:24:07;3.10;99.90
19970;DHT22;10146;47.754;9.566;2024-01-07T06:26:33;3.10;99.90
19970;DHT22;10146;47.754;9.566;2024-01-07T06:28:59;3.10;99.90
19970;DHT22;10146;47.754;9.566;2024-01-07T06:31:25;3.10;99.90
19970;DHT22;10146;47.754;9.566;2024-01-07T06:33:51;3.10;99.90
19970;DHT22;10146;47.754;9.566;2024-01-07T06:36:17;3.00;99.90
19970;DHT22;10146;47.754;9.566;2024-01-07T06:38:43;3.10;99.90
19970;DHT22;10146;47.754;9.566;2024-01-07T06:41:10;3.10;99.90
19970;DHT22;10146;47.754;9.566;2024-01-07T06:43:36;3.10;99.90
19970;DHT22;10146;47.754;9.566;2024-01-07T06:46:01;3.10;99.90
19970;DHT22;10146;47.754;9.566;2024-01-07T06:48:27;3.10;99.90
19970;DHT22;10146;47.754;9.566;2024-01-07T06:50:53;3.10;99.90
19970;DHT22;10146;47.754;9.566;2024-01-07T06:53:18;3.10;99.90
19970;DHT22;10146;47.754;9.566;2024-01-07T06:55:44;3.20;99.90
19970;DHT22;10146;47.754;9.566;2024-01-07T06:58:10;3.10;99.90
19970;DHT22;10146;47.754;9.566;2024-01-07T07:00:35;3.10;99.90
19970;DHT22;10146;47.754;9.566;2024-01-07T07:03:01;3.10;99.90
19970;DHT22;10146;47.754;9.566;2024-01-07T07:05:26;3.10;99.90
19970;DHT22;10146;47.754;9.566;2024-01-07T07:07:52;3.10;99.90
19970;DHT22;10146;47.754;9.566;2024-01-07T07:10:18;3.10;99.90
19970;DHT22;10146;47.754;9.566;2024-01-07T07:12:43;3.10;99.90
19970;DHT22;10146;47.754;9.566;2024-01-07T07:15:09;3.20;99.90
19970;DHT22;10146;47.754;9.566;2024-01-07T07:17:38;3.20;99.90
19970;DHT22;10146;47.754;9.566;2024-01-07T07:20:05;3.10;99.90
19970;DHT22;10146;47.754;9.566;2024-01-07T07:22:30;3.20;99.90
19970;DHT22;10146;47.754;9.566;2024-01-07T07:24:56;3.20;99.90
19970;DHT22;10146;47.754;9.566;2024-01-07T07:27:22;3.20;99.90
19970;DHT22;10146;47.754;9.566;2024-01-07T07:29:47;3.20;99.90
19970;DHT22;10146;47.754;9.566;2024-01-07T07:32:13;3.20;99.90
19970;DHT22;10146;47.754;9.566;2024-01-07T07:34:38;3.20;99.90
19970;DHT22;10146;47.754;9.566;2024-01-07T07:37:04;3.20;99.90
19970;DHT22;10146;47.754;9.566;2024-01-07T07:39:30;3.20;99.90
19970;DHT22;10146;47.754;9.566;2024-01-07T07:41:55;3.20;99.90
19970;DHT22;10146;47.754;9.566;2024-01-07T07:44:21;3.20;99.90
19970;DHT22;10146;47.754;9.566;2024-01-07T07:46:46;3.20;99.90
19970;DHT22;10146;47.754;9.566;2024-01-07T07:49:12;3.20;99.90
19970;DHT22;10146;47.754;9.566;2024-01-07T07:51:38;3.20;99.90
19970;DHT22;10146;47.754;9.566;2024-01-07T07:54:04;3.30;99.90
19970;DHT22;10146;47.754;9.566;2024-01-07T07:56:29;3.30;99.90
19970;DHT22;10146;47.754;9.566;2024-01-07T07:58:55;3.30;99.90
19970;DHT22;10146;47.754;9.566;2024-01-07T08:01:20;3.30;99.90
19970;DHT22;10146;47.754;9.566;2024-01-07T08:03:46;3.30;99.90
19970;DHT22;10146;47.754;9.566;2024-01-07T08:06:12;3.30;99.90
19970;DHT22;10146;47.754;9.566;2024-01-07T08:08:37;3.30;99.90
19970;DHT22;10146;47.754;9.566;2024-01-07T08:11:03;3.30;99.90
19970;DHT22;10146;47.754;9.566;2024-01-07T08:13:35;3.40;99.90
19970;DHT22;10146;47.754;9.566;2024-01-07T08:16:00;3.40;99.90
19970;DHT22;10146;47.754;9.566;2024-01-07T08:18:26;3.40;99.90
19970;DHT22;10146;47.754;9.566;2024-01-07T08:20:51;3.40;99.90
19970;DHT22;10146;47.754;9.566;2024-01-07T08:23:17;3.40;99.90
19970;DHT22;10146;47.754;9.566;2024-01-07T08:25:43;3.40;99.90
19970;DHT22;10146;47.754;9.566;2024-01-07T08:28:10;3.50;99.90
19970;DHT22;10146;47.754;9.566;2024-01-07T08:30:35;3.50;99.90
19970;DHT22;10146;47.754;9.566;2024-01-07T08:33:01;3.50;99.90
19970;DHT22;10146;47.754;9.566;2024-01-07T08:35:27;3.50;99.90
19970;DHT22;10146;47.754;9.566;2024-01-07T08:37:52;3.50;99.90
19970;DHT22;10146;47.754;9.566;2024-01-07T08:40:18;3.60;99.90
19970;DHT22;10146;47.754;9.566;2024-01-07T08:42:44;3.60;99.90
19970;DHT22;10146;47.754;9.566;2024-01-07T08:45:10;3.60;99.90
19970;DHT22;10146;47.754;9.566;2024-01-07T08:47:36;3.60;99.90
19970;DHT22;10146;47.754;9.566;2024-01-07T08:50:02;3.70;99.90
19970;DHT22;10146;47.754;9.566;2024-01-07T08:52:28;3.70;99.90
19970;DHT22;10146;47.754;9.566;2024-01-07T08:54:54;3.80;99.90
19970;DHT22;10146;47.754;9.566;2024-01-07T08:57:20;3.80;99.90
19970;DHT22;10146;47.754;9.566;2024-01-07T08:59:46;3.80;99.90
19970;DHT22;10146;47.754;9.566;2024-01-07T09:02:12;3.80;99.90
19970;DHT22;10146;47.754;9.566;2024-01-07T09:04:37;3.80;99.90
19970;DHT22;10146;47.754;9.566;2024-01-07T09:07:03;3.80;99.90
19970;DHT22;10146;47.754;9.566;2024-01-07T09:09:29;3.80;99.90
19970;DHT22;10146;47.754;9.566;2024-01-07T09:11:54;3.90;99.90
19970;DHT22;10146;47.754;9.566;2024-01-07T09:14:22;3.90;99.90
19970;DHT22;10146;47.754;9.566;2024-01-07T09:16:48;4.00;99.90
19970;DHT22;10146;47.754;9.566;2024-01-07T09:19:13;4.00;99.90
19970;DHT22;10146;47.754;9.566;2024-01-07T09:21:39;4.00;99.90
19970;DHT22;10146;47.754;9.566;2024-01-07T09:24:05;3.90;99.90
19970;DHT22;10146;47.754;9.566;2024-01-07T09:26:30;4.00;99.90
19970;DHT22;10146;47.754;9.566;2024-01-07T09:28:56;4.00;99.90
19970;DHT22;10146;47.754;9.566;2024-01-07T09:31:22;4.00;99.90
19970;DHT22;10146;47.754;9.566;2024-01-07T09:33:48;4.00;99.90
19970;DHT22;10146;47.754;9.566;2024-01-07T09:36:13;4.00;99.90
19970;DHT22;10146;47.754;9.566;2024-01-07T09:38:40;4.00;99.90
19970;DHT22;10146;47.754;9.566;2024-01-07T09:41:05;4.00;99.90
19970;DHT22;10146;47.754;9.566;2024-01-07T09:43:31;4.10;99.90
19970;DHT22;10146;47.754;9.566;2024-01-07T09:45:57;4.20;99.90
19970;DHT22;10146;47.754;9.566;2024-01-07T09:48:24;4.10;99.90
19970;DHT22;10146;47.754;9.566;2024-01-07T09:50:51;4.10;99.90
19970;DHT22;10146;47.754;9.566;2024-01-07T09:53:20;4.10;99.90
19970;DHT22;10146;47.754;9.566;2024-01-07T09:56:20;4.10;99.90
19970;DHT22;10146;47.754;9.566;2024-01-07T09:58:48;4.10;99.90
19970;DHT22;10146;47.754;9.566;2024-01-07T10:01:18;4.10;99.90
19970;DHT22;10146;47.754;9.566;2024-01-07T10:03:44;4.20;99.90
19970;DHT22;10146;47.754;9.566;2024-01-07T10:06:11;4.10;99.90
19970;DHT22;10146;47.754;9.566;2024-01-07T10:08:37;4.20;99.90
19970;DHT22;10146;47.754;9.566;2024-01-07T10:11:03;4.20;99.90
19970;DHT22;10146;47.754;9.566;2024-01-07T10:13:30;4.20;99.90
19970;DHT22;10146;47.754;9.566;2024-01-07T10:15:56;4.10;99.90
19970;DHT22;10146;47.754;9.566;2024-01-07T10:18:22;4.10;99.90
19970;DHT22;10146;47.754;9.566;2024-01-07T10:20:48;4.10;99.90
19970;DHT22;10146;47.754;9.566;2024-01-07T10:23:21;4.00;99.90
19970;DHT22;10146;47.754;9.566;2024-01-07T10:25:47;4.10;99.90
19970;DHT22;10146;47.754;9.566;2024-01-07T10:28:13;4.00;99.90
19970;DHT22;10146;47.754;9.566;2024-01-07T10:30:39;4.10;99.90
19970;DHT22;10146;47.754;9.566;2024-01-07T10:33:07;4.00;99.90
19970;DHT22;10146;47.754;9.566;2024-01-07T10:35:35;4.00;99.90
19970;DHT22;10146;47.754;9.566;2024-01-07T10:38:01;4.10;99.90
19970;DHT22;10146;47.754;9.566;2024-01-07T10:40:28;4.10;99.90
19970;DHT22;10146;47.754;9.566;2024-01-07T10:42:57;4.10;99.90
19970;DHT22;10146;47.754;9.566;2024-01-07T10:45:23;4.10;99.90
19970;DHT22;10146;47.754;9.566;2024-01-07T10:47:50;4.20;99.90
19970;DHT22;10146;47.754;9.566;2024-01-07T10:50:17;4.10;99.90
19970;DHT22;10146;47.754;9.566;2024-01-07T10:52:43;4.10;99.90
19970;DHT22;10146;47.754;9.566;2024-01-07T10:55:14;4.10;99.90
19970;DHT22;10146;47.754;9.566;2024-01-07T10:57:47;4.20;99.90
19970;DHT22;10146;47.754;9.566;2024-01-07T11:00:16;4.30;99.90
19970;DHT22;10146;47.754;9.566;2024-01-07T11:02:53;4.20;99.90
19970;DHT22;10146;47.754;9.566;2024-01-07T11:05:29;4.20;99.90
19970;DHT22;10146;47.754;9.566;2024-01-07T11:08:03;4.00;99.90
19970;DHT22;10146;47.754;9.566;2024-01-07T11:10:43;4.00;99.90
19970;DHT22;10146;47.754;9.566;2024-01-07T11:13:35;3.90;99.90
19970;DHT22;10146;47.754;9.566;2024-01-07T11:16:02;3.90;99.90
19970;DHT22;10146;47.754;9.566;2024-01-07T11:18:28;3.90;99.90
19970;DHT22;10146;47.754;9.566;2024-01-07T11:21:02;3.90;99.90
19970;DHT22;10146;47.754;9.566;2024-01-07T11:23:35;3.80;99.90
19970;DHT22;10146;47.754;9.566;2024-01-07T11:26:03;3.80;99.90
19970;DHT22;10146;47.754;9.566;2024-01-07T11:28:49;3.80;99.90
19970;DHT22;10146;47.754;9.566;2024-01-07T11:31:17;3.90;99.90
19970;DHT22;10146;47.754;9.566;2024-01-07T11:33:44;3.90;99.90
19970;DHT22;10146;47.754;9.566;2024-01-07T11:36:12;3.90;99.90
19970;DHT22;10146;47.754;9.566;2024-01-07T11:38:40;4.00;99.90
19970;DHT22;10146;47.754;9.566;2024-01-07T11:41:08;4.10;99.90
19970;DHT22;10146;47.754;9.566;2024-01-07T11:43:34;4.10;99.90
19970;DHT22;10146;47.754;9.566;2024-01-07T11:46:00;4.00;99.90
19970;DHT22;10146;47.754;9.566;2024-01-07T11:48:26;4.00;99.90
19970;DHT22;10146;47.754;9.566;2024-01-07T11:50:52;4.00;99.90
19970;DHT22;10146;47.754;9.566;2024-01-07T11:53:18;4.00;99.90
19970;DHT22;10146;47.754;9.566;2024-01-07T11:55:45;4.00;99.90
19970;DHT22;10146;47.754;9.566;2024-01-07T11:58:10;4.00;99.90
19970;DHT22;10146;47.754;9.566;2024-01-07T12:00:36;4.00;99.90
19970;DHT22;10146;47.754;9.566;2024-01-07T12:03:02;4.10;99.90
19970;DHT22;10146;47.754;9.566;2024-01-07T12:05:29;4.00;99.90
19970;DHT22;10146;47.754;9.566;2024-01-07T12:07:55;4.00;99.90
19970;DHT22;10146;47.754;9.566;2024-01-07T12:10:21;4.10;99.90
19970;DHT22;10146;47.754;9.566;2024-01-07T12:12:47;4.10;99.90
19970;DHT22;10146;47.754;9.566;2024-01-07T12:15:13;4.00;99.90
19970;DHT22;10146;47.754;9.566;2024-01-07T12:17:40;3.90;99.90
19970;DHT22;10146;47.754;9.566;2024-01-07T12:20:06;3.90;99.90
19970;DHT22;10146;47.754;9.566;2024-01-07T12:22:37;3.90;99.90
19970;DHT22;10146;47.754;9.566;2024-01-07T12:25:03;4.00;99.90
19970;DHT22;10146;47.754;9.566;2024-01-07T12:27:29;3.90;99.90
19970;DHT22;10146;47.754;9.566;2024-01-07T12:29:56;3.80;99.90
19970;DHT22;10146;47.754;9.566;2024-01-07T12:32:22;3.80;99.90
19970;DHT22;10146;47.754;9.566;2024-01-07T12:34:48;3.80;99.90
19970;DHT22;10146;47.754;9.566;2024-01-07T12:37:14;3.80;99.90
19970;DHT22;10146;47.754;9.566;2024-01-07T12:39:40;3.70;99.90
19970;DHT22;10146;47.754;9.566;2024-01-07T12:42:07;3.70;99.90
19970;DHT22;10146;47.754;9.566;2024-01-07T12:44:33;3.70;99.90
19970;DHT22;10146;47.754;9.566;2024-01-07T12:46:59;3.60;99.90
19970;DHT22;10146;47.754;9.566;2024-01-07T12:49:24;3.70;99.90
19970;DHT22;10146;47.754;9.566;2024-01-07T12:51:50;3.80;99.90
19970;DHT22;10146;47.754;9.566;2024-01-07T12:54:16;3.70;99.90
19970;DHT22;10146;47.754;9.566;2024-01-07T12:56:41;3.70;99.90
19970;DHT22;10146;47.754;9.566;2024-01-07T12:59:07;3.60;99.90
19970;DHT22;10146;47.754;9.566;2024-01-07T13:01:33;3.50;99.90
19970;DHT22;10146;47.754;9.566;2024-01-07T13:04:00;3.50;99.90
19970;DHT22;10146;47.754;9.566;2024-01-07T13:06:26;3.50;99.90
19970;DHT22;10146;47.754;9.566;2024-01-07T13:08:51;3.50;99.90
19970;DHT22;10146;47.754;9.566;2024-01-07T13:11:17;3.50;99.90
19970;DHT22;10146;47.754;9.566;2024-01-07T13:13:43;3.30;99.90
19970;DHT22;10146;47.754;9.566;2024-01-07T13:16:08;3.30;99.90
19970;DHT22;10146;47.754;9.566;2024-01-07T13:18:34;3.20;99.90
19970;DHT22;10146;47.754;9.566;2024-01-07T13:20:59;3.20;99.90
19970;DHT22;10146;47.754;9.566;2024-01-07T13:23:25;3.20;99.90
19970;DHT22;10146;47.754;9.566;2024-01-07T13:25:51;3.20;99.90
19970;DHT22;10146;47.754;9.566;2024-01-07T13:28:17;3.20;99.90
19970;DHT22;10146;47.754;9.566;2024-01-07T13:30:43;3.20;99.90
19970;DHT22;10146;47.754;9.566;2024-01-07T13:33:08;3.20;99.90
19970;DHT22;10146;47.754;9.566;2024-01-07T13:35:34;3.20;99.90
19970;DHT22;10146;47.754;9.566;2024-01-07T13:38:00;3.20;99.90
19970;DHT22;10146;47.754;9.566;2024-01-07T13:40:27;3.20;99.90
19970;DHT22;10146;47.754;9.566;2024-01-07T13:42:52;3.10;99.90
19970;DHT22;10146;47.754;9.566;2024-01-07T13:45:19;3.10;99.90
19970;DHT22;10146;47.754;9.566;2024-01-07T13:47:51;3.00;99.90
19970;DHT22;10146;47.754;9.566;2024-01-07T13:50:16;3.00;99.90
19970;DHT22;10146;47.754;9.566;2024-01-07T13:52:43;3.10;99.90
19970;DHT22;10146;47.754;9.566;2024-01-07T13:55:08;3.00;99.90
19970;DHT22;10146;47.754;9.566;2024-01-07T13:57:38;3.00;99.90
19970;DHT22;10146;47.754;9.566;2024-01-07T14:00:04;3.00;99.90
19970;DHT22;10146;47.754;9.566;2024-01-07T14:02:35;2.90;99.90
19970;DHT22;10146;47.754;9.566;2024-01-07T14:05:04;2.90;99.90
19970;DHT22;10146;47.754;9.566;2024-01-07T14:07:32;2.90;99.90
19970;DHT22;10146;47.754;9.566;2024-01-07T14:09:59;2.90;99.90
19970;DHT22;10146;47.754;9.566;2024-01-07T14:12:28;2.90;99.90
19970;DHT22;10146;47.754;9.566;2024-01-07T14:14:53;2.90;99.90
19970;DHT22;10146;47.754;9.566;2024-01-07T14:17:19;2.90;99.90
19970;DHT22;10146;47.754;9.566;2024-01-07T14:19:44;2.90;99.90
19970;DHT22;10146;47.754;9.566;2024-01-07T14:22:12;2.90;99.90
19970;DHT22;10146;47.754;9.566;2024-01-07T14:24:38;2.90;99.90
19970;DHT22;10146;47.754;9.566;2024-01-07T14:27:04;2.90;99.90
19970;DHT22;10146;47.754;9.566;2024-01-07T14:29:29;2.90;99.90
19970;DHT22;10146;47.754;9.566;2024-01-07T14:31:55;2.70;99.90
19970;DHT22;10146;47.754;9.566;2024-01-07T14:34:21;2.70;99.90
19970;DHT22;10146;47.754;9.566;2024-01-07T14:36:46;2.70;99.90
19970;DHT22;10146;47.754;9.566;2024-01-07T14:39:12;2.60;99.90
19970;DHT22;10146;47.754;9.566;2024-01-07T14:41:40;2.70;99.90
19970;DHT22;10146;47.754;9.566;2024-01-07T14:44:06;2.60;99.90
19970;DHT22;10146;47.754;9.566;2024-01-07T14:46:32;2.60;99.90
19970;DHT22;10146;47.754;9.566;2024-01-07T14:48:57;2.60;99.90
19970;DHT22;10146;47.754;9.566;2024-01-07T14:51:23;2.50;99.90
19970;DHT22;10146;47.754;9.566;2024-01-07T14:53:49;2.50;99.90
19970;DHT22;10146;47.754;9.566;2024-01-07T14:56:14;2.50;99.90
19970;DHT22;10146;47.754;9.566;2024-01-07T14:58:40;2.50;99.90
19970;DHT22;10146;47.754;9.566;2024-01-07T15:01:07;2.50;99.90
19970;DHT22;10146;47.754;9.566;2024-01-07T15:03:32;2.50;99.90
19970;DHT22;10146;47.754;9.566;2024-01-07T15:05:58;2.50;99.90
19970;DHT22;10146;47.754;9.566;2024-01-07T15:08:24;2.50;99.90
19970;DHT22;10146;47.754;9.566;2024-01-07T15:10:49;2.50;99.90
19970;DHT22;10146;47.754;9.566;2024-01-07T15:13:15;2.40;99.90
19970;DHT22;10146;47.754;9.566;2024-01-07T15:15:41;2.40;99.90
19970;DHT22;10146;47.754;9.566;2024-01-07T15:18:06;2.30;99.90
19970;DHT22;10146;47.754;9.566;2024-01-07T15:20:32;2.20;99.90
19970;DHT22;10146;47.754;9.566;2024-01-07T15:22:58;2.20;99.90
19970;DHT22;10146;47.754;9.566;2024-01-07T15:25:23;2.30;99.90
19970;DHT22;10146;47.754;9.566;2024-01-07T15:27:49;2.30;99.90
19970;DHT22;10146;47.754;9.566;2024-01-07T15:30:15;2.30;99.90
19970;DHT22;10146;47.754;9.566;2024-01-07T15:32:41;2.20;99.90
19970;DHT22;10146;47.754;9.566;2024-01-07T15:35:06;2.20;99.90
19970;DHT22;10146;47.754;9.566;2024-01-07T15:37:34;2.10;99.90
19970;DHT22;10146;47.754;9.566;2024-01-07T15:40:00;2.00;99.90